Time;durP1;ratioP1;P1;durP2;ratioP2;P2;SDS_P1;SDS_P2;PMS_P1;PMS_P2;Temp;Humidity;BMP_temperature;BMP_pressure;BME280_temperature;BME280_humidity;BME280_pressure;Samples;Min_cycle;Max_cycle;Signal;HPM_P1;HPM_P2
2023/08/26 00:01:01;;;;;;;31.88;23.20;;;;;;;17.32;100.00;100775.25;5004742;28;20129;-78
2023/08/26 00:03:28;;;;;;;33.63;23.73;;;;;;;17.33;100.00;100776.97;5007964;28;20048;-78
2023/08/26 00:05:55;;;;;;;34.58;24.88;;;;;;;17.32;100.00;100779.72;5003991;28;20042;-77
2023/08/26 00:08:22;;;;;;;35.35;24.00;;;;;;;17.31;100.00;100780.66;5007077;28;20401;-77
2023/08/26 00:10:51;;;;;;;29.83;21.65;;;;;;;17.33;100.00;100778.78;5002331;28;20038;-78
2023/08/26 00:13:18;;;;;;;31.77;23.10;;;;;;;17.32;100.00;100766.41;5006898;28;20073;-77
2023/08/26 00:15:45;;;;;;;29.38;21.15;;;;;;;17.29;100.00;100764.78;5005752;28;20266;-78
2023/08/26 00:18:13;;;;;;;31.20;22.20;;;;;;;17.30;100.00;100777.16;5006604;28;20052;-78
2023/08/26 00:20:40;;;;;;;34.67;23.30;;;;;;;17.30;100.00;100770.94;5004463;28;20049;-79
2023/08/26 00:23:08;;;;;;;28.80;20.27;;;;;;;17.29;100.00;100767.44;5003661;28;20041;-78
2023/08/26 00:25:35;;;;;;;32.47;20.80;;;;;;;17.27;100.00;100769.34;4989823;28;20042;-78
2023/08/26 00:28:03;;;;;;;33.13;21.40;;;;;;;17.26;100.00;100772.94;5005642;28;20046;-77
2023/08/26 00:30:31;;;;;;;34.72;21.30;;;;;;;17.27;100.00;100776.47;4990563;28;20045;-79
2023/08/26 00:32:59;;;;;;;26.55;19.83;;;;;;;17.27;100.00;100780.00;5002192;28;20052;-78
2023/08/26 00:35:26;;;;;;;31.33;18.95;;;;;;;17.26;100.00;100772.94;4996262;28;20055;-78
2023/08/26 00:37:55;;;;;;;26.85;18.30;;;;;;;17.27;100.00;100780.00;4987014;28;20038;-80
2023/08/26 00:40:22;;;;;;;25.38;18.45;;;;;;;17.24;100.00;100772.19;4988368;28;20046;-79
2023/08/26 00:42:54;;;;;;;25.55;18.63;;;;;;;17.21;100.00;100767.88;5006896;28;20038;-80
2023/08/26 00:45:22;;;;;;;25.40;18.23;;;;;;;17.18;100.00;100777.88;5004294;28;20058;-80
2023/08/26 00:47:49;;;;;;;28.75;18.42;;;;;;;17.16;100.00;100785.97;4986585;28;20057;-79
2023/08/26 00:50:17;;;;;;;28.67;18.90;;;;;;;17.16;100.00;100788.63;4988157;28;20038;-79
2023/08/26 00:52:44;;;;;;;27.98;18.48;;;;;;;17.14;100.00;100779.88;4992686;28;20124;-79
2023/08/26 00:55:11;;;;;;;26.77;18.33;;;;;;;17.12;100.00;100786.25;4989951;28;20103;-80
2023/08/26 00:57:39;;;;;;;26.05;19.15;;;;;;;17.09;100.00;100784.63;5004740;28;20049;-77
2023/08/26 01:00:08;;;;;;;29.83;19.98;;;;;;;17.08;100.00;100788.22;5005630;28;20418;-77
2023/08/26 01:02:37;;;;;;;30.33;19.63;;;;;;;17.01;100.00;100784.19;4991877;28;20050;-75
2023/08/26 01:05:08;;;;;;;21.90;17.40;;;;;;;16.98;100.00;100787.91;4995675;28;20050;-77
2023/08/26 01:07:35;;;;;;;27.48;18.65;;;;;;;16.86;100.00;100793.88;5005255;28;20049;-75
2023/08/26 01:10:03;;;;;;;22.85;17.08;;;;;;;16.79;100.00;100795.19;4983642;28;20049;-75
2023/08/26 01:12:48;;;;;;;22.67;15.00;;;;;;;16.72;100.00;100795.56;5007170;28;20049;-75
2023/08/26 01:15:17;;;;;;;19.95;14.52;;;;;;;16.60;100.00;100805.06;5006748;28;20061;-78
2023/08/26 01:17:45;;;;;;;23.40;15.57;;;;;;;16.55;100.00;100798.28;5014029;28;20045;-76
2023/08/26 01:20:14;;;;;;;21.58;17.10;;;;;;;16.46;100.00;100802.34;5006793;28;20069;-75
2023/08/26 01:22:44;;;;;;;25.10;17.45;;;;;;;16.39;100.00;100800.94;5006262;28;20061;-77
2023/08/26 01:25:11;;;;;;;25.95;17.08;;;;;;;16.37;100.00;100792.22;5003787;28;20457;-77
2023/08/26 01:27:38;;;;;;;22.08;14.45;;;;;;;16.35;100.00;100792.28;4998932;28;20042;-75
2023/08/26 01:30:10;;;;;;;18.35;12.65;;;;;;;16.32;100.00;100794.25;5010533;28;20053;-76
2023/08/26 01:32:53;;;;;;;18.30;11.70;;;;;;;16.24;100.00;100802.66;4993137;28;20052;-77
2023/08/26 01:35:31;;;;;;;14.13;10.25;;;;;;;16.16;100.00;100792.47;4984035;28;20049;-76
2023/08/26 01:37:59;;;;;;;16.45;10.35;;;;;;;16.07;100.00;100793.81;5003454;28;20062;-76
2023/08/26 01:40:29;;;;;;;16.38;10.05;;;;;;;15.97;100.00;100797.91;4997947;28;20711;-77
2023/08/26 01:42:58;;;;;;;13.55;10.10;;;;;;;15.89;100.00;100802.78;5007140;28;20046;-76
2023/08/26 01:45:25;;;;;;;15.32;11.05;;;;;;;15.79;100.00;100810.34;5005714;28;20064;-76
2023/08/26 01:47:52;;;;;;;13.90;10.55;;;;;;;15.73;100.00;100806.19;4986486;28;20045;-76
2023/08/26 01:50:20;;;;;;;15.40;11.18;;;;;;;15.69;100.00;100804.66;5004756;28;20046;-76
2023/08/26 01:52:47;;;;;;;13.93;9.27;;;;;;;15.62;100.00;100805.91;4993355;28;20466;-78
2023/08/26 01:55:15;;;;;;;13.30;8.48;;;;;;;15.56;100.00;100809.75;4987538;28;20418;-76
2023/08/26 01:57:42;;;;;;;12.30;8.02;;;;;;;15.48;100.00;100809.28;5003429;28;20046;-76
2023/08/26 02:00:10;;;;;;;13.63;8.75;;;;;;;15.41;100.00;100814.06;4988450;28;20486;-78
2023/08/26 02:02:43;;;;;;;17.27;9.20;;;;;;;15.35;100.00;100812.56;5001735;28;20061;-78
2023/08/26 02:05:11;;;;;;;16.83;8.20;;;;;;;15.29;100.00;100807.56;5003365;28;20435;-77
2023/08/26 02:07:38;;;;;;;16.42;8.43;;;;;;;15.21;100.00;100815.91;5002495;28;20703;-78
2023/08/26 02:10:06;;;;;;;11.23;7.18;;;;;;;15.15;100.00;100818.03;4996235;28;20404;-77
2023/08/26 02:12:33;;;;;;;13.30;6.97;;;;;;;15.07;100.00;100810.44;5003812;28;20073;-77
2023/08/26 02:15:03;;;;;;;11.75;6.10;;;;;;;15.04;100.00;100818.53;5004386;28;20096;-76
2023/08/26 02:17:30;;;;;;;11.98;6.43;;;;;;;15.03;100.00;100819.47;4986354;28;20316;-77
2023/08/26 02:19:57;;;;;;;12.60;6.35;;;;;;;14.97;100.00;100819.78;4987603;28;20107;-75
2023/08/26 02:22:24;;;;;;;12.32;6.35;;;;;;;14.89;100.00;100820.16;5008460;28;20784;-75
2023/08/26 02:24:51;;;;;;;11.85;6.32;;;;;;;14.86;100.00;100821.19;5003770;28;20153;-76
2023/08/26 02:27:18;;;;;;;11.75;7.15;;;;;;;14.77;100.00;100812.78;4999756;28;20092;-75
2023/08/26 02:29:45;;;;;;;14.00;6.55;;;;;;;14.71;100.00;100816.59;5004334;28;20038;-75
2023/08/26 02:32:13;;;;;;;13.23;6.97;;;;;;;14.64;100.00;100821.31;5003552;28;20077;-76
2023/08/26 02:34:40;;;;;;;12.88;7.68;;;;;;;14.60;100.00;100820.59;4987828;28;20785;-76
2023/08/26 02:37:07;;;;;;;12.60;7.05;;;;;;;14.59;100.00;100818.03;4999691;28;20048;-75
2023/08/26 02:39:35;;;;;;;11.27;6.57;;;;;;;14.58;100.00;100822.47;5003440;28;20052;-75
2023/08/26 02:42:02;;;;;;;12.63;6.82;;;;;;;14.54;100.00;100834.16;5007835;28;20045;-76
2023/08/26 02:44:30;;;;;;;10.68;6.10;;;;;;;14.49;100.00;100830.00;5001008;28;20061;-75
2023/08/26 02:46:57;;;;;;;11.60;6.60;;;;;;;14.44;100.00;100827.56;5002291;28;20044;-75
2023/08/26 02:49:26;;;;;;;10.98;5.30;;;;;;;14.41;100.00;100827.69;4990197;28;20174;-75
2023/08/26 02:51:53;;;;;;;10.13;5.47;;;;;;;14.38;100.00;100828.72;5003646;28;20042;-74
2023/08/26 02:54:20;;;;;;;9.82;5.18;;;;;;;14.35;100.00;100835.94;4987913;28;20048;-75
2023/08/26 02:56:48;;;;;;;11.30;4.50;;;;;;;14.28;100.00;100835.38;5005100;28;20041;-75
2023/08/26 02:59:15;;;;;;;9.20;4.13;;;;;;;14.24;100.00;100829.34;5004554;28;20044;-76
2023/08/26 03:01:42;;;;;;;8.43;3.90;;;;;;;14.18;100.00;100837.59;5003352;28;20411;-75
2023/08/26 03:04:10;;;;;;;9.00;4.07;;;;;;;14.14;100.00;100828.88;4991459;28;20040;-75
2023/08/26 03:06:37;;;;;;;8.95;4.22;;;;;;;14.11;100.00;100836.13;4998345;28;20034;-76
2023/08/26 03:09:04;;;;;;;9.60;4.00;;;;;;;14.09;100.00;100838.00;4987605;28;20072;-75
2023/08/26 03:11:31;;;;;;;9.43;4.10;;;;;;;14.07;100.00;100843.34;5007513;28;20042;-74
2023/08/26 03:13:59;;;;;;;9.52;4.03;;;;;;;14.06;100.00;100846.09;4987150;28;20046;-75
2023/08/26 03:16:26;;;;;;;8.88;4.15;;;;;;;14.05;100.00;100844.38;4987951;28;20046;-75
2023/08/26 03:18:53;;;;;;;6.43;3.90;;;;;;;13.98;100.00;100841.13;4987359;28;20042;-75
2023/08/26 03:21:21;;;;;;;11.63;4.30;;;;;;;13.94;100.00;100839.53;4991554;28;20060;-75
2023/08/26 03:23:48;;;;;;;9.35;3.88;;;;;;;13.90;100.00;100836.16;5003329;28;20443;-76
2023/08/26 03:26:15;;;;;;;8.25;4.10;;;;;;;13.90;100.00;100844.09;5005628;28;20403;-75
2023/08/26 03:28:42;;;;;;;12.50;4.45;;;;;;;13.90;100.00;100845.91;4991624;28;20121;-75
2023/08/26 03:31:10;;;;;;;10.18;4.50;;;;;;;13.86;100.00;100842.53;5002868;28;20057;-74
2023/08/26 03:33:44;;;;;;;7.65;4.13;;;;;;;13.82;100.00;100836.53;4987129;28;20034;-75
2023/08/26 03:36:12;;;;;;;6.35;4.30;;;;;;;13.79;100.00;100836.66;4987367;28;20045;-75
2023/08/26 03:38:39;;;;;;;11.10;4.40;;;;;;;13.77;100.00;100832.34;5003103;28;20038;-75
2023/08/26 03:41:06;;;;;;;12.32;4.28;;;;;;;13.75;100.00;100840.34;5002220;28;20112;-77
2023/08/26 03:43:34;;;;;;;7.13;3.97;;;;;;;13.73;100.00;100841.34;4990954;28;20081;-73
2023/08/26 03:46:03;;;;;;;10.13;4.35;;;;;;;13.75;100.00;100844.78;4993944;28;20061;-73
2023/08/26 03:48:31;;;;;;;9.25;4.20;;;;;;;13.73;100.00;100850.19;4987737;28;20525;-78
2023/08/26 03:50:58;;;;;;;7.78;4.15;;;;;;;13.67;100.00;100845.13;4987672;28;20053;-77
2023/08/26 03:53:27;;;;;;;6.95;3.90;;;;;;;13.64;100.00;100843.47;4986061;28;20097;-77
2023/08/26 03:55:54;;;;;;;9.15;3.90;;;;;;;13.63;100.00;100846.19;5002352;28;20129;-75
2023/08/26 03:58:21;;;;;;;8.20;3.78;;;;;;;13.62;100.00;100847.13;5003593;28;20046;-78
2023/08/26 04:01:14;;;;;;;11.55;3.85;;;;;;;13.58;100.00;100849.00;5003232;28;20214;-77
2023/08/26 04:03:42;;;;;;;12.77;4.03;;;;;;;13.58;100.00;100848.16;5002837;28;20045;-77
2023/08/26 04:06:09;;;;;;;12.07;3.78;;;;;;;13.56;100.00;100840.31;5002707;28;20054;-77
2023/08/26 04:08:37;;;;;;;10.65;3.75;;;;;;;13.56;100.00;100844.72;4986445;28;20061;-75
2023/08/26 04:11:04;;;;;;;6.65;3.78;;;;;;;13.51;100.00;100850.22;4982261;28;20537;-77
2023/08/26 04:13:31;;;;;;;10.02;3.35;;;;;;;13.45;100.00;100855.78;4987536;28;20038;-78
2023/08/26 04:16:02;;;;;;;8.90;3.90;;;;;;;13.44;100.00;100851.41;5007352;28;20048;-76
2023/08/26 04:18:31;;;;;;;8.63;3.78;;;;;;;13.40;100.00;100858.63;5004845;28;20458;-75
2023/08/26 04:20:59;;;;;;;11.20;3.80;;;;;;;13.38;100.00;100854.28;5005905;28;20152;-75
2023/08/26 04:23:30;;;;;;;9.38;4.32;;;;;;;13.34;100.00;100864.13;4990160;28;20030;-75
2023/08/26 04:26:05;;;;;;;8.52;4.10;;;;;;;13.34;100.00;100869.41;5004841;28;20038;-80
2023/08/26 04:28:33;;;;;;;8.18;4.47;;;;;;;13.30;100.00;100865.19;4990783;28;20035;-79
2023/08/26 04:31:00;;;;;;;7.47;3.97;;;;;;;13.28;100.00;100870.53;5004871;28;20046;-79
2023/08/26 04:33:29;;;;;;;8.40;4.53;;;;;;;13.24;100.00;100874.25;4986263;28;20038;-80
2023/08/26 04:35:57;;;;;;;11.73;4.47;;;;;;;13.18;100.00;100875.34;5002815;28;20049;-79
2023/08/26 04:38:24;;;;;;;7.10;4.35;;;;;;;13.16;100.00;100881.66;5005884;28;20533;-78
2023/08/26 04:40:51;;;;;;;10.77;4.55;;;;;;;13.14;100.00;100880.84;5010633;28;20049;-76
2023/08/26 04:43:18;;;;;;;9.02;4.18;;;;;;;13.14;100.00;100878.19;5002449;28;20120;-74
2023/08/26 04:45:46;;;;;;;12.75;4.53;;;;;;;13.12;100.00;100887.97;5006237;28;20045;-74
2023/08/26 04:48:14;;;;;;;8.68;4.63;;;;;;;13.13;100.00;100889.69;5008831;28;20049;-76
2023/08/26 04:50:43;;;;;;;7.90;4.60;;;;;;;13.10;100.00;100889.81;5004638;28;20042;-77
2023/08/26 04:53:11;;;;;;;9.05;4.45;;;;;;;13.10;100.00;100898.63;5003471;28;20042;-76
2023/08/26 04:55:38;;;;;;;8.40;4.57;;;;;;;13.08;100.00;100895.19;5005836;28;20057;-76
2023/08/26 04:58:09;;;;;;;9.88;4.07;;;;;;;13.07;100.00;100901.38;5001348;28;20800;-76
2023/08/26 05:00:41;;;;;;;10.32;4.40;;;;;;;13.08;100.00;100907.53;5005681;28;20046;-76
2023/08/26 05:03:09;;;;;;;9.93;4.00;;;;;;;13.10;100.00;100913.63;4997606;28;20053;-76
2023/08/26 05:05:41;;;;;;;8.15;4.65;;;;;;;13.11;100.00;100910.94;4991296;28;20048;-77
2023/08/26 05:08:09;;;;;;;6.65;4.15;;;;;;;13.16;100.00;100921.34;5002896;28;20053;-77
2023/08/26 05:10:39;;;;;;;6.82;3.58;;;;;;;13.27;100.00;100924.44;5004980;28;20050;-77
2023/08/26 05:13:07;;;;;;;9.57;4.40;;;;;;;13.38;100.00;100934.56;5005584;28;20486;-77
2023/08/26 05:15:34;;;;;;;9.98;4.30;;;;;;;13.49;100.00;100934.16;4989631;28;20049;-77
2023/08/26 05:18:02;;;;;;;12.27;4.18;;;;;;;13.91;100.00;100922.69;4990391;28;20042;-78
2023/08/26 05:20:30;;;;;;;9.73;3.88;;;;;;;14.16;100.00;100926.06;4989824;28;20043;-76
2023/08/26 05:22:58;;;;;;;6.30;3.78;;;;;;;14.03;100.00;100923.97;4986426;28;20357;-76
2023/08/26 05:25:25;;;;;;;12.43;3.65;;;;;;;14.03;100.00;100933.69;5006350;28;20554;-76
2023/08/26 05:27:52;;;;;;;8.05;3.33;;;;;;;14.57;100.00;100931.28;5006147;28;20046;-76
2023/08/26 05:30:20;;;;;;;7.82;3.42;;;;;;;15.97;98.71;100933.50;4988523;28;20403;-74
2023/08/26 05:32:52;;;;;;;6.85;2.90;;;;;;;17.34;93.32;100930.56;5004541;28;20074;-75
2023/08/26 05:35:19;;;;;;;7.20;2.70;;;;;;;18.35;87.40;100924.63;5004412;28;20042;-75
2023/08/26 05:37:47;;;;;;;6.97;3.08;;;;;;;18.51;83.87;100939.72;4986600;28;20537;-75
2023/08/26 05:40:16;;;;;;;5.97;2.47;;;;;;;17.53;86.94;100937.50;5003515;28;20041;-75
2023/08/26 05:42:43;;;;;;;6.40;2.88;;;;;;;16.71;89.23;100940.22;5002850;28;21432;-75
2023/08/26 05:45:10;;;;;;;8.00;2.50;;;;;;;16.09;90.96;100943.50;4985151;28;20052;-76
2023/08/26 05:47:37;;;;;;;5.05;2.80;;;;;;;15.64;91.63;100937.75;5003942;28;20645;-74
2023/08/26 05:50:06;;;;;;;8.57;2.85;;;;;;;15.32;93.27;100940.22;4988976;28;20519;-76
2023/08/26 05:52:33;;;;;;;7.43;3.10;;;;;;;15.07;93.73;100924.59;5003129;28;20045;-74
2023/08/26 05:55:01;;;;;;;8.32;3.20;;;;;;;14.91;95.12;100924.47;4990638;28;20037;-74
2023/08/26 05:57:28;;;;;;;6.18;3.20;;;;;;;14.79;96.20;100927.69;4987224;28;20402;-73
2023/08/26 05:59:55;;;;;;;8.70;2.97;;;;;;;14.68;95.96;100920.25;5005077;28;20037;-74
2023/08/26 06:02:22;;;;;;;8.88;3.35;;;;;;;14.64;97.10;100915.97;4985935;28;20122;-78
2023/08/26 06:04:50;;;;;;;8.02;3.47;;;;;;;14.63;98.10;100923.06;5005933;28;20046;-77
2023/08/26 06:07:18;;;;;;;7.55;3.08;;;;;;;14.64;98.48;100924.81;4987499;28;20584;-76
2023/08/26 06:09:46;;;;;;;7.28;3.03;;;;;;;14.70;98.70;100923.69;4987042;28;20509;-75
2023/08/26 06:12:13;;;;;;;6.85;3.33;;;;;;;14.80;98.96;100918.81;5005101;28;20053;-76
2023/08/26 06:14:40;;;;;;;8.63;3.65;;;;;;;14.86;99.09;100918.50;4987773;28;20049;-76
2023/08/26 06:17:07;;;;;;;7.68;3.65;;;;;;;14.90;98.57;100914.78;5002746;28;20042;-76
2023/08/26 06:19:35;;;;;;;9.10;3.95;;;;;;;14.95;99.01;100918.09;4998216;28;20041;-76
2023/08/26 06:22:02;;;;;;;7.63;3.33;;;;;;;14.99;99.27;100913.50;5002229;28;20041;-75
2023/08/26 06:24:30;;;;;;;8.57;3.60;;;;;;;15.07;99.97;100911.31;4985220;28;20200;-75
2023/08/26 06:26:57;;;;;;;9.07;3.70;;;;;;;15.15;100.00;100925.09;5001562;28;20534;-77
2023/08/26 06:29:25;;;;;;;10.15;3.80;;;;;;;15.24;99.89;100917.59;4984958;28;20067;-78
2023/08/26 06:31:53;;;;;;;11.32;3.65;;;;;;;15.33;99.20;100917.16;4985570;28;20142;-78
2023/08/26 06:34:23;;;;;;;6.57;3.40;;;;;;;15.38;98.66;100923.97;4987741;28;20088;-75
2023/08/26 06:36:50;;;;;;;8.20;3.70;;;;;;;15.43;98.94;100917.56;5005603;28;20042;-78
2023/08/26 06:39:17;;;;;;;8.30;3.55;;;;;;;15.48;98.58;100924.38;5003265;28;20088;-77
2023/08/26 06:41:44;;;;;;;8.85;3.58;;;;;;;15.52;97.83;100917.13;4986967;28;20042;-77
2023/08/26 06:44:15;;;;;;;9.45;3.42;;;;;;;15.58;95.64;100921.25;4986616;28;20133;-76
2023/08/26 06:46:42;;;;;;;11.15;4.07;;;;;;;15.58;95.28;100916.78;5002286;28;20045;-78
2023/08/26 06:49:09;;;;;;;9.85;3.70;;;;;;;15.62;96.09;100921.03;4999357;28;20474;-77
2023/08/26 06:51:37;;;;;;;11.57;3.70;;;;;;;15.68;96.61;100918.06;5004107;28;20041;-77
2023/08/26 06:54:04;;;;;;;11.02;3.85;;;;;;;15.74;95.64;100908.91;4986299;28;20544;-76
2023/08/26 06:56:31;;;;;;;6.38;3.17;;;;;;;15.80;95.84;100919.25;4986549;28;20515;-78
2023/08/26 06:58:59;;;;;;;7.70;3.70;;;;;;;15.88;95.51;100926.00;5003163;28;20171;-77
2023/08/26 07:01:26;;;;;;;9.40;3.58;;;;;;;15.91;95.74;100926.69;5001693;28;20107;-77
2023/08/26 07:03:53;;;;;;;6.72;3.00;;;;;;;15.95;94.83;100933.59;5002639;28;20042;-77
2023/08/26 07:06:21;;;;;;;7.22;3.00;;;;;;;16.01;94.76;100924.44;4985627;28;20424;-75
2023/08/26 07:08:49;;;;;;;7.15;2.90;;;;;;;16.07;94.25;100923.25;5002366;28;20124;-76
2023/08/26 07:11:16;;;;;;;10.15;3.70;;;;;;;16.09;92.24;100921.34;4992466;28;20077;-76
2023/08/26 07:13:44;;;;;;;6.93;3.20;;;;;;;16.11;93.25;100925.66;5001976;28;20679;-76
2023/08/26 07:16:11;;;;;;;18.98;5.25;;;;;;;16.19;93.93;100927.91;5002052;28;20089;-76
2023/08/26 07:18:38;;;;;;;32.08;8.65;;;;;;;16.26;92.66;100925.78;5002704;28;20073;-76
2023/08/26 07:21:06;;;;;;;64.50;20.77;;;;;;;16.32;92.76;100927.25;4999106;28;20054;-75
2023/08/26 07:23:33;;;;;;;16.10;4.63;;;;;;;16.41;92.23;100924.09;5002974;28;20034;-75
2023/08/26 07:26:04;;;;;;;9.88;3.47;;;;;;;16.49;92.07;100921.88;5003132;28;20054;-78
2023/08/26 07:28:31;;;;;;;5.60;2.85;;;;;;;16.57;91.62;100918.81;5004282;28;20045;-75
2023/08/26 07:31:05;;;;;;;9.02;3.00;;;;;;;16.66;91.23;100918.31;5005729;28;20041;-75
2023/08/26 07:33:33;;;;;;;8.55;2.67;;;;;;;16.76;90.21;100921.34;4986403;28;20139;-76
2023/08/26 07:36:09;;;;;;;6.95;2.50;;;;;;;16.80;89.45;100917.56;5001883;28;20049;-75
2023/08/26 07:38:38;;;;;;;5.40;2.50;;;;;;;16.87;90.79;100918.06;5003207;28;20113;-77
2023/08/26 07:41:05;;;;;;;4.45;2.58;;;;;;;16.95;89.78;100921.19;5003486;28;20159;-75
2023/08/26 07:43:33;;;;;;;8.38;2.30;;;;;;;17.02;88.68;100927.91;5003164;28;20045;-76
2023/08/26 07:46:00;;;;;;;6.93;2.15;;;;;;;17.07;87.99;100923.19;5004016;28;20101;-75
2023/08/26 07:48:31;;;;;;;4.40;2.10;;;;;;;17.14;89.01;100930.84;5008494;28;20037;-75
2023/08/26 07:51:01;;;;;;;4.90;2.20;;;;;;;17.22;88.44;100929.44;5008147;28;20609;-76
2023/08/26 07:53:28;;;;;;;2.90;1.88;;;;;;;17.30;86.86;100922.81;5004563;28;20109;-75
2023/08/26 07:55:55;;;;;;;7.20;2.30;;;;;;;17.34;87.95;100927.03;5005983;28;20038;-77
2023/08/26 07:58:22;;;;;;;7.28;2.53;;;;;;;17.40;87.31;100924.00;4986823;28;20801;-77
2023/08/26 08:00:49;;;;;;;5.30;1.90;;;;;;;17.45;86.47;100931.75;5004896;28;20049;-76
2023/08/26 08:03:16;;;;;;;7.93;2.22;;;;;;;17.50;86.08;100922.50;5005675;28;20065;-77
2023/08/26 08:05:44;;;;;;;6.05;2.15;;;;;;;17.60;85.94;100927.34;4988949;28;20129;-77
2023/08/26 08:08:11;;;;;;;5.47;2.20;;;;;;;17.65;85.96;100930.56;5004425;28;20193;-77
2023/08/26 08:10:38;;;;;;;9.57;2.00;;;;;;;17.74;85.41;100924.69;5005914;28;20042;-76
2023/08/26 08:13:05;;;;;;;4.22;1.83;;;;;;;17.82;84.53;100932.25;5006484;28;20045;-75
2023/08/26 08:15:32;;;;;;;4.60;1.75;;;;;;;17.86;85.21;100928.44;5003633;28;20561;-75
2023/08/26 08:18:00;;;;;;;5.63;1.83;;;;;;;17.90;84.99;100929.97;5005208;28;20425;-75
2023/08/26 08:20:27;;;;;;;7.82;1.80;;;;;;;17.94;81.50;100927.97;5005048;28;20556;-77
2023/08/26 08:22:54;;;;;;;5.15;1.60;;;;;;;17.95;82.49;100932.38;5004441;28;20050;-74
2023/08/26 08:25:26;;;;;;;4.75;1.40;;;;;;;17.99;78.55;100936.63;5003325;28;20376;-75
2023/08/26 08:27:53;;;;;;;4.03;1.50;;;;;;;17.97;80.82;100942.03;5002017;28;20053;-74
2023/08/26 08:30:21;;;;;;;6.63;1.92;;;;;;;18.01;81.28;100934.69;5006662;28;20073;-75
2023/08/26 08:32:50;;;;;;;4.18;1.67;;;;;;;18.09;81.83;100942.22;5005025;28;20355;-75
2023/08/26 08:35:17;;;;;;;6.57;1.60;;;;;;;18.21;81.57;100940.66;5005568;28;20042;-75
2023/08/26 08:37:44;;;;;;;5.65;1.52;;;;;;;18.25;77.51;100937.69;5004254;28;20064;-76
2023/08/26 08:40:12;;;;;;;3.78;1.10;;;;;;;18.30;79.39;100940.09;5003652;28;20125;-75
2023/08/26 08:42:42;;;;;;;4.97;1.70;;;;;;;18.35;79.67;100943.31;5002327;28;20078;-74
2023/08/26 08:45:11;;;;;;;6.22;1.42;;;;;;;18.45;79.76;100944.47;5003845;28;20056;-75
2023/08/26 08:47:40;;;;;;;3.25;1.60;;;;;;;18.53;78.02;100937.78;5004471;28;20452;-73
2023/08/26 08:50:08;;;;;;;5.50;1.40;;;;;;;18.65;79.77;100944.19;5004696;28;20050;-74
2023/08/26 08:52:36;;;;;;;3.85;1.25;;;;;;;18.66;79.22;100946.75;5005591;28;20042;-74
2023/08/26 08:55:05;;;;;;;3.75;1.48;;;;;;;18.83;78.62;100947.47;5002643;28;20052;-75
2023/08/26 08:57:35;;;;;;;4.82;1.30;;;;;;;18.95;78.87;100944.06;4985439;28;20518;-75
2023/08/26 09:00:04;;;;;;;5.78;1.40;;;;;;;19.02;78.14;100940.06;5002606;28;20069;-76
2023/08/26 09:02:34;;;;;;;5.00;1.67;;;;;;;19.19;77.46;100941.63;5002528;28;20054;-75
2023/08/26 09:05:02;;;;;;;3.95;1.20;;;;;;;19.32;77.70;100938.16;5001449;28;20050;-73
2023/08/26 09:07:33;;;;;;;4.50;1.15;;;;;;;19.39;74.97;100934.97;5004597;28;20045;-74
2023/08/26 09:10:02;;;;;;;4.47;1.27;;;;;;;19.44;76.12;100939.16;5002376;28;20042;-74
2023/08/26 09:12:29;;;;;;;2.88;1.00;;;;;;;19.48;74.81;100938.88;5003066;28;20049;-74
2023/08/26 09:14:57;;;;;;;4.28;1.33;;;;;;;19.56;76.38;100946.38;5004888;28;20584;-73
2023/08/26 09:17:24;;;;;;;7.03;1.48;;;;;;;19.75;77.90;100943.31;5002616;28;20510;-74
2023/08/26 09:19:58;;;;;;;3.03;1.08;;;;;;;19.95;77.12;100935.78;5004509;28;20052;-74
2023/08/26 09:22:31;;;;;;;5.63;1.40;;;;;;;19.99;75.61;100940.81;5005405;28;20193;-74
2023/08/26 09:25:01;;;;;;;4.30;1.20;;;;;;;20.06;74.54;100937.72;5007410;28;20057;-75
2023/08/26 09:27:34;;;;;;;4.03;1.10;;;;;;;20.12;70.34;100939.97;5003763;28;20244;-74
2023/08/26 09:30:03;;;;;;;3.30;1.20;;;;;;;20.07;72.29;100942.97;5003167;28;20069;-74
2023/08/26 09:32:37;;;;;;;4.72;1.25;;;;;;;20.15;71.33;100951.31;4986502;28;20041;-75
2023/08/26 09:35:22;;;;;;;4.88;1.30;;;;;;;20.30;71.53;100948.53;5002973;28;20549;-74
2023/08/26 09:38:09;;;;;;;5.50;1.08;;;;;;;20.54;71.20;100951.34;5001217;28;20142;-74
2023/08/26 09:40:38;;;;;;;3.92;1.00;;;;;;;20.71;67.39;100946.59;5001594;28;20323;-74
2023/08/26 09:43:10;;;;;;;4.80;1.27;;;;;;;20.66;66.80;100938.00;5005390;28;20244;-73
2023/08/26 09:45:38;;;;;;;5.38;1.40;;;;;;;20.81;68.12;100947.66;4989616;28;20048;-74
2023/08/26 09:48:05;;;;;;;5.28;1.10;;;;;;;20.87;68.43;100941.00;5002513;28;20048;-75
2023/08/26 09:50:33;;;;;;;5.97;0.90;;;;;;;21.12;65.58;100941.88;5001937;28;20053;-74
2023/08/26 09:53:01;;;;;;;2.88;1.00;;;;;;;21.25;63.68;100940.91;5001319;28;20069;-73
2023/08/26 09:55:29;;;;;;;2.58;0.70;;;;;;;21.30;64.14;100943.22;4986096;28;20072;-74
2023/08/26 09:57:57;;;;;;;4.80;1.00;;;;;;;21.36;65.43;100939.25;5002212;28;20042;-74
2023/08/26 10:00:25;;;;;;;3.95;1.10;;;;;;;21.42;64.42;100953.03;4985353;28;20128;-74
2023/08/26 10:03:02;;;;;;;3.88;0.85;;;;;;;21.33;64.44;100956.38;5007240;28;20974;-76
2023/08/26 10:05:37;;;;;;;3.92;1.00;;;;;;;21.21;66.07;100950.13;4999131;28;20389;-74
2023/08/26 10:08:09;;;;;;;3.25;0.90;;;;;;;21.18;64.22;100949.50;4999097;28;20053;-74
2023/08/26 10:10:55;;;;;;;2.70;0.60;;;;;;;21.19;64.29;100943.16;4998511;28;20042;-74
2023/08/26 10:13:30;;;;;;;2.90;0.85;;;;;;;21.42;65.77;100950.34;4981172;28;20613;-74
2023/08/26 10:16:00;;;;;;;2.95;0.70;;;;;;;21.78;67.05;100946.88;4995710;28;20045;-75
2023/08/26 10:18:55;;;;;;;3.50;0.75;;;;;;;22.03;64.34;100940.47;5000541;28;20164;-71
2023/08/26 10:21:24;;;;;;;1.80;0.80;;;;;;;22.26;65.34;100936.00;4997399;28;20045;-74
2023/08/26 10:23:51;;;;;;;1.80;0.50;;;;;;;22.44;63.92;100947.16;5001666;28;20515;-73
2023/08/26 10:26:19;;;;;;;2.20;0.70;;;;;;;22.53;60.72;100942.03;4984292;28;20629;-75
2023/08/26 10:28:48;;;;;;;3.97;0.70;;;;;;;22.31;60.79;100939.19;5002774;28;20149;-73
2023/08/26 10:31:16;;;;;;;1.75;0.70;;;;;;;22.09;61.63;100931.09;4998817;28;20131;-74
2023/08/26 10:34:06;;;;;;;3.70;0.90;;;;;;;21.77;62.25;100937.97;5000297;28;20530;-74
2023/08/26 10:36:38;;;;;;;2.58;0.60;;;;;;;21.77;62.05;100937.97;4991794;28;20041;-74
2023/08/26 10:39:19;;;;;;;1.98;0.70;;;;;;;21.88;61.70;100940.66;4999512;28;20049;-75
2023/08/26 10:42:27;;;;;;;3.03;0.70;;;;;;;22.07;62.75;100941.09;4998602;28;20065;-75
2023/08/26 10:45:02;;;;;;;1.58;0.55;;;;;;;22.27;59.69;100937.69;5000890;28;20073;-76
2023/08/26 10:47:40;;;;;;;2.92;0.85;;;;;;;22.38;58.39;100936.00;5001579;28;20061;-75
2023/08/26 10:50:22;;;;;;;2.10;0.50;;;;;;;22.38;59.08;100944.94;4999814;28;20053;-76
2023/08/26 10:52:54;;;;;;;1.98;0.80;;;;;;;22.08;57.83;100940.97;5001176;28;20046;-75
2023/08/26 10:55:27;;;;;;;3.45;0.70;;;;;;;21.76;59.09;100943.44;4996634;28;20038;-76
2023/08/26 10:58:09;;;;;;;4.18;0.73;;;;;;;21.57;58.78;100944.81;5002111;28;20427;-74
2023/08/26 11:00:43;;;;;;;2.65;0.65;;;;;;;21.31;60.70;100942.25;5003244;28;20037;-74
2023/08/26 11:03:13;;;;;;;3.20;0.75;;;;;;;21.21;60.03;100955.47;5000759;28;20352;-75
2023/08/26 11:05:44;;;;;;;4.20;1.00;;;;;;;21.10;61.29;100947.38;5001941;28;20061;-75
2023/08/26 11:08:12;;;;;;;4.03;1.10;;;;;;;21.05;62.63;100945.03;5000059;28;20048;-74
2023/08/26 11:10:41;;;;;;;6.45;0.77;;;;;;;21.17;62.44;100934.38;5002854;28;20049;-75
2023/08/26 11:13:11;;;;;;;4.80;1.05;;;;;;;21.34;62.93;100939.34;5000264;28;20052;-74
2023/08/26 11:15:43;;;;;;;2.83;0.90;;;;;;;21.68;62.78;100933.28;5002736;28;20050;-73
2023/08/26 11:18:11;;;;;;;5.13;1.02;;;;;;;21.92;61.44;100935.94;5003785;28;20132;-74
2023/08/26 11:20:38;;;;;;;3.17;0.70;;;;;;;22.07;58.31;100930.34;5002850;28;20553;-74
2023/08/26 11:23:06;;;;;;;2.25;0.70;;;;;;;22.16;59.85;100921.56;5003970;28;20132;-74
2023/08/26 11:25:36;;;;;;;3.45;0.80;;;;;;;22.36;60.73;100925.41;5004220;28;20045;-74